Aviation Digital Data Service (ADDS)

Output produced by METARs form (1605 UTC 20 September 2018)
found at http://aviationweather.gov/metar/data/
 
Forecast for: EPCE (CEWICE AIRBASE , PL)
Text: TAF EPCE 2003/2012 VRB02KT CAVOK
Forecast period: 0300 to 0400 UTC 20 September 2018
Forecast type: FROM: standard forecast or significant change
Winds: variable direction winds at 2 MPH (2 knots; 1.0 m/s)
Visibility: 6 or more miles 10+ km)
Ceiling: unknown
Clouds: missing
Weather: NSW  (no significant weather)
Text: BECMG 2004/2006 19006KT
Forecast period: 0400 to 1200 UTC 20 September 2018
Forecast type: BECOMING: Conditions expected to become as follows by 0600 UTC 20 September 2018
Winds: from the S (190 degrees) at 7 MPH (6 knots; 3.1 m/s)
Visibility: 6 or more miles 10+ km)
Ceiling: unknown
Clouds: missing
Weather: NSW  (no significant weather)

Forecast for: EPDA (DARTOWEK NAVAL , PL)
Text: TAF EPDA 201400Z 2015/2024 29006KT CAVOK
Forecast period: 1500 to 1800 UTC 20 September 2018
Forecast type: FROM: standard forecast or significant change
Winds: from the WNW (290 degrees) at 7 MPH (6 knots; 3.1 m/s)
Visibility: 6 or more miles 10+ km)
Ceiling: unknown
Clouds: missing
Weather: NSW  (no significant weather)
Text: BECMG 2018/2020 16006KT
Forecast period: 1800 UTC 20 September 2018 to 0000 UTC 21 September 2018
Forecast type: BECOMING: Conditions expected to become as follows by 2000 UTC 20 September 2018
Winds: from the SSE (160 degrees) at 7 MPH (6 knots; 3.1 m/s)
Visibility: 6 or more miles 10+ km)
Ceiling: unknown
Clouds: missing
Weather: NSW  (no significant weather)

Forecast for: EPDE (DEBLIN-IRENA , PL)
Text: TAF EPDE 201400Z 2015/2024 18006KT CAVOK
Forecast period: 1500 UTC 20 September 2018 to 0000 UTC 21 September 2018
Forecast type: FROM: standard forecast or significant change
Winds: from the S (180 degrees) at 7 MPH (6 knots; 3.1 m/s)
Visibility: 6 or more miles 10+ km)
Ceiling: unknown
Clouds: missing
Weather: NSW  (no significant weather)

Forecast for: EPMB (MALBORK , PL)
Text: TAF EPMB 201400Z 2015/2024 22008KT CAVOK
Forecast period: 1500 UTC 20 September 2018 to 0000 UTC 21 September 2018
Forecast type: FROM: standard forecast or significant change
Winds: from the SW (220 degrees) at 9 MPH (8 knots; 4.1 m/s)
Visibility: 6 or more miles 10+ km)
Ceiling: unknown
Clouds: missing
Weather: NSW  (no significant weather)
Text: TEMPO 2017/2022 VRB03KT
Forecast period: 1700 to 2200 UTC 20 September 2018
Forecast type: TEMPORARY: The following changes expected for less than half the time period
Winds: variable direction winds at 3 MPH (3 knots; 1.5 m/s)
Visibility: missing
Ceiling: unknown
Clouds: missing
Weather: no significant weather forecast for this period

Forecast for: EPOK (GDYNIA-BABIE DO , PL)
Text: TAF EPOK 201400Z 2015/2024 22006KT CAVOK
Forecast period: 1500 to 1800 UTC 20 September 2018
Forecast type: FROM: standard forecast or significant change
Winds: from the SW (220 degrees) at 7 MPH (6 knots; 3.1 m/s)
Visibility: 6 or more miles 10+ km)
Ceiling: unknown
Clouds: missing
Weather: NSW  (no significant weather)
Text: BECMG 2018/2020 17006KT
Forecast period: 1800 UTC 20 September 2018 to 0000 UTC 21 September 2018
Forecast type: BECOMING: Conditions expected to become as follows by 2000 UTC 20 September 2018
Winds: from the S (170 degrees) at 7 MPH (6 knots; 3.1 m/s)
Visibility: 6 or more miles 10+ km)
Ceiling: unknown
Clouds: missing
Weather: NSW  (no significant weather)

Forecast for: EPRA (RADOM AIRPORT , PL)
Text: TAF EPRA 201400Z 2015/2024 VRB03KT CAVOK
Forecast period: 1500 UTC 20 September 2018 to 0000 UTC 21 September 2018
Forecast type: FROM: standard forecast or significant change
Winds: variable direction winds at 3 MPH (3 knots; 1.5 m/s)
Visibility: 6 or more miles 10+ km)
Ceiling: unknown
Clouds: missing
Weather: NSW  (no significant weather)